sensor_id;sensor_type;location;lat;lon;timestamp;P1;durP1;ratioP1;P2;durP2;ratioP2
60032;SDS011;45905;50.570;10.428;2023-07-13T00:01:53;2.10;;;1.07;;
60032;SDS011;45905;50.570;10.428;2023-07-13T00:04:22;3.00;;;0.90;;
60032;SDS011;45905;50.570;10.428;2023-07-13T00:06:56;1.30;;;1.00;;
60032;SDS011;45905;50.570;10.428;2023-07-13T00:09:24;3.00;;;1.33;;
60032;SDS011;45905;50.570;10.428;2023-07-13T00:11:53;2.00;;;1.13;;
60032;SDS011;45905;50.570;10.428;2023-07-13T00:14:24;2.00;;;1.10;;
60032;SDS011;45905;50.570;10.428;2023-07-13T00:16:54;3.33;;;0.90;;
60032;SDS011;45905;50.570;10.428;2023-07-13T00:19:22;1.20;;;0.80;;
60032;SDS011;45905;50.570;10.428;2023-07-13T00:21:49;2.13;;;0.93;;
60032;SDS011;45905;50.570;10.428;2023-07-13T00:24:17;2.27;;;0.90;;
60032;SDS011;45905;50.570;10.428;2023-07-13T00:26:50;1.00;;;0.90;;
60032;SDS011;45905;50.570;10.428;2023-07-13T00:29:18;1.10;;;0.80;;
60032;SDS011;45905;50.570;10.428;2023-07-13T00:31:47;1.97;;;1.00;;
60032;SDS011;45905;50.570;10.428;2023-07-13T00:34:15;4.10;;;1.00;;
60032;SDS011;45905;50.570;10.428;2023-07-13T00:36:42;1.20;;;0.83;;
60032;SDS011;45905;50.570;10.428;2023-07-13T00:39:09;1.33;;;1.00;;
60032;SDS011;45905;50.570;10.428;2023-07-13T00:41:37;1.53;;;0.73;;
60032;SDS011;45905;50.570;10.428;2023-07-13T00:44:04;1.67;;;1.07;;
60032;SDS011;45905;50.570;10.428;2023-07-13T00:46:32;2.70;;;1.23;;
60032;SDS011;45905;50.570;10.428;2023-07-13T00:49:05;1.63;;;0.90;;
60032;SDS011;45905;50.570;10.428;2023-07-13T00:51:45;5.23;;;0.93;;
60032;SDS011;45905;50.570;10.428;2023-07-13T00:54:33;1.50;;;1.10;;
60032;SDS011;45905;50.570;10.428;2023-07-13T00:57:07;1.80;;;0.90;;
60032;SDS011;45905;50.570;10.428;2023-07-13T00:59:41;1.33;;;0.70;;
60032;SDS011;45905;50.570;10.428;2023-07-13T01:02:15;1.47;;;1.07;;
60032;SDS011;45905;50.570;10.428;2023-07-13T01:04:43;0.83;;;0.53;;
60032;SDS011;45905;50.570;10.428;2023-07-13T01:07:11;1.37;;;0.77;;
60032;SDS011;45905;50.570;10.428;2023-07-13T01:09:39;2.83;;;1.30;;
60032;SDS011;45905;50.570;10.428;2023-07-13T01:12:06;3.83;;;1.40;;
60032;SDS011;45905;50.570;10.428;2023-07-13T01:14:34;1.10;;;0.70;;
60032;SDS011;45905;50.570;10.428;2023-07-13T01:17:02;2.23;;;0.77;;
60032;SDS011;45905;50.570;10.428;2023-07-13T01:19:36;3.70;;;0.80;;
60032;SDS011;45905;50.570;10.428;2023-07-13T01:22:14;1.23;;;0.90;;
60032;SDS011;45905;50.570;10.428;2023-07-13T01:24:47;1.83;;;1.07;;
60032;SDS011;45905;50.570;10.428;2023-07-13T01:27:16;1.30;;;0.70;;
60032;SDS011;45905;50.570;10.428;2023-07-13T01:29:52;1.10;;;0.93;;
60032;SDS011;45905;50.570;10.428;2023-07-13T01:32:30;5.20;;;1.20;;
60032;SDS011;45905;50.570;10.428;2023-07-13T01:35:00;1.33;;;0.63;;
60032;SDS011;45905;50.570;10.428;2023-07-13T01:37:27;1.60;;;1.27;;
60032;SDS011;45905;50.570;10.428;2023-07-13T01:39:59;1.90;;;1.00;;
60032;SDS011;45905;50.570;10.428;2023-07-13T01:42:30;1.30;;;1.13;;
60032;SDS011;45905;50.570;10.428;2023-07-13T01:44:57;2.90;;;1.23;;
60032;SDS011;45905;50.570;10.428;2023-07-13T01:47:24;2.70;;;1.20;;
60032;SDS011;45905;50.570;10.428;2023-07-13T01:49:52;1.60;;;0.80;;
60032;SDS011;45905;50.570;10.428;2023-07-13T01:52:19;3.00;;;1.20;;
60032;SDS011;45905;50.570;10.428;2023-07-13T01:54:47;1.30;;;1.00;;
60032;SDS011;45905;50.570;10.428;2023-07-13T01:57:16;1.50;;;0.90;;
60032;SDS011;45905;50.570;10.428;2023-07-13T01:59:43;1.17;;;0.63;;
60032;SDS011;45905;50.570;10.428;2023-07-13T02:02:10;2.23;;;0.87;;
60032;SDS011;45905;50.570;10.428;2023-07-13T02:04:38;1.90;;;1.03;;
60032;SDS011;45905;50.570;10.428;2023-07-13T02:07:05;0.97;;;0.70;;
60032;SDS011;45905;50.570;10.428;2023-07-13T02:09:32;1.33;;;1.10;;
60032;SDS011;45905;50.570;10.428;2023-07-13T02:11:59;1.30;;;0.90;;
60032;SDS011;45905;50.570;10.428;2023-07-13T02:14:32;1.33;;;0.97;;
60032;SDS011;45905;50.570;10.428;2023-07-13T02:16:59;2.17;;;0.87;;
60032;SDS011;45905;50.570;10.428;2023-07-13T02:19:26;1.93;;;1.03;;
60032;SDS011;45905;50.570;10.428;2023-07-13T02:21:53;7.03;;;1.17;;
60032;SDS011;45905;50.570;10.428;2023-07-13T02:24:20;1.13;;;0.77;;
60032;SDS011;45905;50.570;10.428;2023-07-13T02:26:48;0.90;;;0.67;;
60032;SDS011;45905;50.570;10.428;2023-07-13T02:29:15;1.40;;;0.80;;
60032;SDS011;45905;50.570;10.428;2023-07-13T02:31:44;1.20;;;0.80;;
60032;SDS011;45905;50.570;10.428;2023-07-13T02:34:11;1.10;;;0.70;;
60032;SDS011;45905;50.570;10.428;2023-07-13T02:36:39;1.53;;;1.17;;
60032;SDS011;45905;50.570;10.428;2023-07-13T02:39:07;9.13;;;1.40;;
60032;SDS011;45905;50.570;10.428;2023-07-13T02:41:35;1.37;;;1.00;;
60032;SDS011;45905;50.570;10.428;2023-07-13T02:44:02;9.50;;;2.20;;
60032;SDS011;45905;50.570;10.428;2023-07-13T02:46:31;1.33;;;0.80;;
60032;SDS011;45905;50.570;10.428;2023-07-13T02:49:04;3.13;;;1.23;;
60032;SDS011;45905;50.570;10.428;2023-07-13T02:51:31;1.53;;;1.00;;
60032;SDS011;45905;50.570;10.428;2023-07-13T02:54:01;1.20;;;0.90;;
60032;SDS011;45905;50.570;10.428;2023-07-13T02:56:30;1.53;;;0.80;;
60032;SDS011;45905;50.570;10.428;2023-07-13T02:58:58;2.40;;;0.90;;
60032;SDS011;45905;50.570;10.428;2023-07-13T03:01:26;3.27;;;1.00;;
60032;SDS011;45905;50.570;10.428;2023-07-13T03:03:53;2.27;;;1.20;;
60032;SDS011;45905;50.570;10.428;2023-07-13T03:06:21;10.73;;;1.37;;
60032;SDS011;45905;50.570;10.428;2023-07-13T03:08:52;1.97;;;1.17;;
60032;SDS011;45905;50.570;10.428;2023-07-13T03:11:21;1.30;;;0.90;;
60032;SDS011;45905;50.570;10.428;2023-07-13T03:13:59;1.30;;;0.90;;
60032;SDS011;45905;50.570;10.428;2023-07-13T03:16:30;4.03;;;1.03;;
60032;SDS011;45905;50.570;10.428;2023-07-13T03:18:58;1.97;;;1.20;;
60032;SDS011;45905;50.570;10.428;2023-07-13T03:21:26;19.13;;;1.10;;
60032;SDS011;45905;50.570;10.428;2023-07-13T03:23:53;1.10;;;0.90;;
60032;SDS011;45905;50.570;10.428;2023-07-13T03:26:20;3.10;;;1.30;;
60032;SDS011;45905;50.570;10.428;2023-07-13T03:28:48;0.93;;;0.70;;
60032;SDS011;45905;50.570;10.428;2023-07-13T03:31:20;1.40;;;1.00;;
60032;SDS011;45905;50.570;10.428;2023-07-13T03:33:51;2.03;;;1.23;;
60032;SDS011;45905;50.570;10.428;2023-07-13T03:36:20;1.13;;;0.77;;
60032;SDS011;45905;50.570;10.428;2023-07-13T03:38:54;3.77;;;0.90;;
60032;SDS011;45905;50.570;10.428;2023-07-13T03:41:31;15.83;;;1.13;;
60032;SDS011;45905;50.570;10.428;2023-07-13T03:43:58;1.10;;;0.93;;
60032;SDS011;45905;50.570;10.428;2023-07-13T03:46:26;1.10;;;0.80;;
60032;SDS011;45905;50.570;10.428;2023-07-13T03:48:54;1.00;;;0.87;;
60032;SDS011;45905;50.570;10.428;2023-07-13T03:51:21;1.43;;;1.10;;
60032;SDS011;45905;50.570;10.428;2023-07-13T03:53:48;1.67;;;1.30;;
60032;SDS011;45905;50.570;10.428;2023-07-13T03:56:18;1.23;;;0.83;;
60032;SDS011;45905;50.570;10.428;2023-07-13T03:58:47;1.10;;;0.90;;
60032;SDS011;45905;50.570;10.428;2023-07-13T04:01:19;2.10;;;1.10;;
60032;SDS011;45905;50.570;10.428;2023-07-13T04:03:49;2.90;;;2.60;;
60032;SDS011;45905;50.570;10.428;2023-07-13T04:06:17;1.30;;;0.77;;
60032;SDS011;45905;50.570;10.428;2023-07-13T04:08:53;1.40;;;0.77;;
60032;SDS011;45905;50.570;10.428;2023-07-13T04:11:25;1.57;;;1.33;;
60032;SDS011;45905;50.570;10.428;2023-07-13T04:13:55;2.67;;;1.47;;
60032;SDS011;45905;50.570;10.428;2023-07-13T04:16:23;2.03;;;1.07;;
60032;SDS011;45905;50.570;10.428;2023-07-13T04:18:51;1.33;;;1.00;;
60032;SDS011;45905;50.570;10.428;2023-07-13T04:21:26;2.43;;;1.30;;
60032;SDS011;45905;50.570;10.428;2023-07-13T04:23:55;2.30;;;1.07;;
60032;SDS011;45905;50.570;10.428;2023-07-13T04:26:22;2.27;;;0.97;;
60032;SDS011;45905;50.570;10.428;2023-07-13T04:28:50;1.20;;;0.90;;
60032;SDS011;45905;50.570;10.428;2023-07-13T04:31:18;3.93;;;1.27;;
60032;SDS011;45905;50.570;10.428;2023-07-13T04:33:46;5.00;;;1.00;;
60032;SDS011;45905;50.570;10.428;2023-07-13T04:36:15;1.60;;;0.97;;
60032;SDS011;45905;50.570;10.428;2023-07-13T04:38:43;1.40;;;1.07;;
60032;SDS011;45905;50.570;10.428;2023-07-13T04:41:13;3.33;;;1.13;;
60032;SDS011;45905;50.570;10.428;2023-07-13T04:43:42;1.00;;;0.80;;
60032;SDS011;45905;50.570;10.428;2023-07-13T04:46:11;11.77;;;1.30;;
60032;SDS011;45905;50.570;10.428;2023-07-13T04:48:42;3.20;;;1.67;;
60032;SDS011;45905;50.570;10.428;2023-07-13T04:51:09;1.97;;;1.47;;
60032;SDS011;45905;50.570;10.428;2023-07-13T04:53:37;1.43;;;1.00;;
60032;SDS011;45905;50.570;10.428;2023-07-13T04:56:05;1.00;;;0.90;;
60032;SDS011;45905;50.570;10.428;2023-07-13T04:58:32;5.60;;;1.50;;
60032;SDS011;45905;50.570;10.428;2023-07-13T05:01:01;5.23;;;1.50;;
60032;SDS011;45905;50.570;10.428;2023-07-13T05:03:32;1.63;;;1.50;;
60032;SDS011;45905;50.570;10.428;2023-07-13T05:06:02;1.50;;;1.20;;
60032;SDS011;45905;50.570;10.428;2023-07-13T05:08:33;1.30;;;1.00;;
60032;SDS011;45905;50.570;10.428;2023-07-13T05:11:01;5.10;;;1.10;;
60032;SDS011;45905;50.570;10.428;2023-07-13T05:13:30;1.83;;;1.37;;
60032;SDS011;45905;50.570;10.428;2023-07-13T05:15:58;1.20;;;0.97;;
60032;SDS011;45905;50.570;10.428;2023-07-13T05:18:29;1.37;;;1.27;;
60032;SDS011;45905;50.570;10.428;2023-07-13T05:21:07;2.17;;;1.50;;
60032;SDS011;45905;50.570;10.428;2023-07-13T05:23:37;6.93;;;1.67;;
60032;SDS011;45905;50.570;10.428;2023-07-13T05:26:08;4.10;;;1.47;;
60032;SDS011;45905;50.570;10.428;2023-07-13T05:28:35;7.57;;;1.20;;
60032;SDS011;45905;50.570;10.428;2023-07-13T05:31:03;1.80;;;1.00;;
60032;SDS011;45905;50.570;10.428;2023-07-13T05:33:33;2.00;;;1.53;;
60032;SDS011;45905;50.570;10.428;2023-07-13T05:36:00;3.90;;;2.10;;
60032;SDS011;45905;50.570;10.428;2023-07-13T05:38:28;2.40;;;1.47;;
60032;SDS011;45905;50.570;10.428;2023-07-13T05:40:56;1.10;;;0.97;;
60032;SDS011;45905;50.570;10.428;2023-07-13T05:43:24;3.60;;;2.00;;
60032;SDS011;45905;50.570;10.428;2023-07-13T05:45:55;3.70;;;1.70;;
60032;SDS011;45905;50.570;10.428;2023-07-13T05:48:23;11.60;;;1.80;;
60032;SDS011;45905;50.570;10.428;2023-07-13T05:50:51;1.90;;;1.50;;
60032;SDS011;45905;50.570;10.428;2023-07-13T05:53:18;2.60;;;1.60;;
60032;SDS011;45905;50.570;10.428;2023-07-13T05:55:45;5.60;;;1.73;;
60032;SDS011;45905;50.570;10.428;2023-07-13T05:58:14;2.17;;;1.53;;
60032;SDS011;45905;50.570;10.428;2023-07-13T06:00:41;2.20;;;1.13;;
60032;SDS011;45905;50.570;10.428;2023-07-13T06:03:08;2.00;;;1.33;;
60032;SDS011;45905;50.570;10.428;2023-07-13T06:05:36;1.40;;;0.90;;
60032;SDS011;45905;50.570;10.428;2023-07-13T06:08:05;1.37;;;1.17;;
60032;SDS011;45905;50.570;10.428;2023-07-13T06:10:34;2.90;;;1.30;;
60032;SDS011;45905;50.570;10.428;2023-07-13T06:13:03;1.60;;;1.03;;
60032;SDS011;45905;50.570;10.428;2023-07-13T06:15:30;5.43;;;1.30;;
60032;SDS011;45905;50.570;10.428;2023-07-13T06:17:57;3.63;;;1.30;;
60032;SDS011;45905;50.570;10.428;2023-07-13T06:20:24;1.70;;;1.23;;
60032;SDS011;45905;50.570;10.428;2023-07-13T06:22:55;6.30;;;1.00;;
60032;SDS011;45905;50.570;10.428;2023-07-13T06:25:22;2.73;;;1.23;;
60032;SDS011;45905;50.570;10.428;2023-07-13T06:27:49;3.80;;;1.73;;
60032;SDS011;45905;50.570;10.428;2023-07-13T06:30:16;3.93;;;1.23;;
60032;SDS011;45905;50.570;10.428;2023-07-13T06:32:43;1.50;;;1.03;;
60032;SDS011;45905;50.570;10.428;2023-07-13T06:35:11;2.77;;;0.80;;
60032;SDS011;45905;50.570;10.428;2023-07-13T06:37:40;3.03;;;0.90;;
60032;SDS011;45905;50.570;10.428;2023-07-13T06:40:07;1.83;;;1.40;;
60032;SDS011;45905;50.570;10.428;2023-07-13T06:42:35;1.67;;;1.23;;
60032;SDS011;45905;50.570;10.428;2023-07-13T06:45:02;4.07;;;1.40;;
60032;SDS011;45905;50.570;10.428;2023-07-13T06:47:30;2.27;;;1.37;;
60032;SDS011;45905;50.570;10.428;2023-07-13T06:50:00;1.57;;;1.30;;
60032;SDS011;45905;50.570;10.428;2023-07-13T06:52:27;2.33;;;1.07;;
60032;SDS011;45905;50.570;10.428;2023-07-13T06:54:54;1.33;;;0.80;;
60032;SDS011;45905;50.570;10.428;2023-07-13T06:57:21;1.47;;;1.10;;
60032;SDS011;45905;50.570;10.428;2023-07-13T06:59:49;5.23;;;2.00;;
60032;SDS011;45905;50.570;10.428;2023-07-13T07:02:16;1.83;;;1.40;;
60032;SDS011;45905;50.570;10.428;2023-07-13T07:04:43;1.23;;;1.13;;
60032;SDS011;45905;50.570;10.428;2023-07-13T07:07:10;2.00;;;1.30;;
60032;SDS011;45905;50.570;10.428;2023-07-13T07:09:38;1.63;;;1.37;;
60032;SDS011;45905;50.570;10.428;2023-07-13T07:12:05;2.23;;;1.30;;
60032;SDS011;45905;50.570;10.428;2023-07-13T07:14:33;4.70;;;0.80;;
60032;SDS011;45905;50.570;10.428;2023-07-13T07:17:00;1.00;;;0.70;;
60032;SDS011;45905;50.570;10.428;2023-07-13T07:19:29;5.23;;;1.47;;
60032;SDS011;45905;50.570;10.428;2023-07-13T07:21:57;1.80;;;1.17;;
60032;SDS011;45905;50.570;10.428;2023-07-13T07:24:24;4.63;;;0.70;;
60032;SDS011;45905;50.570;10.428;2023-07-13T07:26:51;2.73;;;0.90;;
60032;SDS011;45905;50.570;10.428;2023-07-13T07:29:21;1.70;;;0.73;;
60032;SDS011;45905;50.570;10.428;2023-07-13T07:31:54;1.23;;;0.60;;
60032;SDS011;45905;50.570;10.428;2023-07-13T07:34:24;0.90;;;0.70;;
60032;SDS011;45905;50.570;10.428;2023-07-13T07:36:52;1.10;;;0.80;;
60032;SDS011;45905;50.570;10.428;2023-07-13T07:39:23;1.97;;;0.70;;
60032;SDS011;45905;50.570;10.428;2023-07-13T07:41:50;1.07;;;0.53;;
60032;SDS011;45905;50.570;10.428;2023-07-13T07:44:20;0.80;;;0.47;;
60032;SDS011;45905;50.570;10.428;2023-07-13T07:46:48;1.77;;;0.50;;
60032;SDS011;45905;50.570;10.428;2023-07-13T07:49:15;1.20;;;0.77;;
60032;SDS011;45905;50.570;10.428;2023-07-13T07:51:43;1.00;;;0.70;;
60032;SDS011;45905;50.570;10.428;2023-07-13T07:54:10;0.97;;;0.53;;
60032;SDS011;45905;50.570;10.428;2023-07-13T07:56:52;0.80;;;0.40;;
60032;SDS011;45905;50.570;10.428;2023-07-13T07:59:22;0.80;;;0.50;;
60032;SDS011;45905;50.570;10.428;2023-07-13T08:01:52;0.80;;;0.40;;
60032;SDS011;45905;50.570;10.428;2023-07-13T08:04:22;0.77;;;0.40;;
60032;SDS011;45905;50.570;10.428;2023-07-13T08:06:52;1.10;;;0.60;;
60032;SDS011;45905;50.570;10.428;2023-07-13T08:09:20;1.90;;;0.83;;
60032;SDS011;45905;50.570;10.428;2023-07-13T08:11:47;5.90;;;1.20;;
60032;SDS011;45905;50.570;10.428;2023-07-13T08:14:17;1.17;;;0.70;;
60032;SDS011;45905;50.570;10.428;2023-07-13T08:16:45;0.90;;;0.50;;
60032;SDS011;45905;50.570;10.428;2023-07-13T08:19:12;0.80;;;0.50;;
60032;SDS011;45905;50.570;10.428;2023-07-13T08:21:40;1.73;;;0.70;;
60032;SDS011;45905;50.570;10.428;2023-07-13T08:24:09;4.00;;;1.13;;
60032;SDS011;45905;50.570;10.428;2023-07-13T08:26:37;1.63;;;0.73;;
60032;SDS011;45905;50.570;10.428;2023-07-13T08:29:04;2.60;;;0.50;;
60032;SDS011;45905;50.570;10.428;2023-07-13T08:31:32;1.00;;;0.70;;
60032;SDS011;45905;50.570;10.428;2023-07-13T08:33:59;0.80;;;0.43;;
60032;SDS011;45905;50.570;10.428;2023-07-13T08:36:27;1.43;;;0.80;;
60032;SDS011;45905;50.570;10.428;2023-07-13T08:38:55;0.80;;;0.50;;
60032;SDS011;45905;50.570;10.428;2023-07-13T08:41:23;1.63;;;0.90;;
60032;SDS011;45905;50.570;10.428;2023-07-13T08:43:51;1.17;;;0.80;;
60032;SDS011;45905;50.570;10.428;2023-07-13T08:46:43;1.00;;;0.70;;
60032;SDS011;45905;50.570;10.428;2023-07-13T08:49:17;1.20;;;1.10;;
60032;SDS011;45905;50.570;10.428;2023-07-13T08:51:51;0.90;;;0.80;;
60032;SDS011;45905;50.570;10.428;2023-07-13T08:54:34;1.10;;;1.00;;
60032;SDS011;45905;50.570;10.428;2023-07-13T08:57:18;4.13;;;2.20;;
60032;SDS011;45905;50.570;10.428;2023-07-13T08:59:49;2.13;;;1.93;;
60032;SDS011;45905;50.570;10.428;2023-07-13T09:05:25;3.00;;;1.67;;
60032;SDS011;45905;50.570;10.428;2023-07-13T09:10:44;4.40;;;3.40;;
60032;SDS011;45905;50.570;10.428;2023-07-13T09:14:04;2.90;;;2.07;;
60032;SDS011;45905;50.570;10.428;2023-07-13T09:16:16;13.43;;;5.27;;
60032;SDS011;45905;50.570;10.428;2023-07-13T09:18:45;10.07;;;4.43;;
60032;SDS011;45905;50.570;10.428;2023-07-13T09:21:22;10.50;;;4.90;;
60032;SDS011;45905;50.570;10.428;2023-07-13T09:23:59;14.13;;;4.80;;
60032;SDS011;45905;50.570;10.428;2023-07-13T09:26:49;11.90;;;3.87;;
60032;SDS011;45905;50.570;10.428;2023-07-13T09:29:22;20.37;;;6.20;;
60032;SDS011;45905;50.570;10.428;2023-07-13T09:31:57;26.57;;;7.30;;
60032;SDS011;45905;50.570;10.428;2023-07-13T09:34:29;26.20;;;7.30;;
60032;SDS011;45905;50.570;10.428;2023-07-13T09:36:58;13.43;;;3.33;;
60032;SDS011;45905;50.570;10.428;2023-07-13T09:39:27;38.33;;;7.80;;
60032;SDS011;45905;50.570;10.428;2023-07-13T09:42:16;48.73;;;8.90;;
60032;SDS011;45905;50.570;10.428;2023-07-13T09:44:57;31.17;;;6.00;;
60032;SDS011;45905;50.570;10.428;2023-07-13T09:47:30;26.23;;;7.13;;
60032;SDS011;45905;50.570;10.428;2023-07-13T09:50:06;32.07;;;8.93;;
60032;SDS011;45905;50.570;10.428;2023-07-13T09:52:44;98.83;;;25.87;;
60032;SDS011;45905;50.570;10.428;2023-07-13T09:55:23;16.53;;;4.40;;
60032;SDS011;45905;50.570;10.428;2023-07-13T09:58:06;29.47;;;7.80;;
60032;SDS011;45905;50.570;10.428;2023-07-13T10:00:42;33.57;;;7.83;;
60032;SDS011;45905;50.570;10.428;2023-07-13T10:03:24;35.20;;;8.03;;
60032;SDS011;45905;50.570;10.428;2023-07-13T10:06:16;34.13;;;8.13;;
60032;SDS011;45905;50.570;10.428;2023-07-13T10:08:46;23.13;;;6.73;;
60032;SDS011;45905;50.570;10.428;2023-07-13T10:11:20;22.60;;;6.57;;
60032;SDS011;45905;50.570;10.428;2023-07-13T10:16:23;18.10;;;4.27;;
60032;SDS011;45905;50.570;10.428;2023-07-13T10:19:05;18.73;;;4.27;;
60032;SDS011;45905;50.570;10.428;2023-07-13T10:21:50;15.57;;;4.23;;
60032;SDS011;45905;50.570;10.428;2023-07-13T10:24:23;1.67;;;0.80;;
60032;SDS011;45905;50.570;10.428;2023-07-13T10:27:18;0.90;;;0.70;;
60032;SDS011;45905;50.570;10.428;2023-07-13T10:30:04;1.20;;;0.90;;
60032;SDS011;45905;50.570;10.428;2023-07-13T10:33:02;0.90;;;0.40;;
60032;SDS011;45905;50.570;10.428;2023-07-13T10:35:42;1.13;;;0.60;;
60032;SDS011;45905;50.570;10.428;2023-07-13T10:38:13;1.93;;;0.50;;
60032;SDS011;45905;50.570;10.428;2023-07-13T10:43:25;3.60;;;0.90;;
60032;SDS011;45905;50.570;10.428;2023-07-13T10:46:03;0.80;;;0.50;;
60032;SDS011;45905;50.570;10.428;2023-07-13T10:48:34;3.17;;;1.33;;
60032;SDS011;45905;50.570;10.428;2023-07-13T10:51:03;0.80;;;0.40;;
60032;SDS011;45905;50.570;10.428;2023-07-13T10:53:34;1.67;;;0.60;;
60032;SDS011;45905;50.570;10.428;2023-07-13T10:56:05;1.67;;;0.53;;
60032;SDS011;45905;50.570;10.428;2023-07-13T10:59:01;3.97;;;0.70;;
60032;SDS011;45905;50.570;10.428;2023-07-13T11:04:40;0.80;;;0.40;;
60032;SDS011;45905;50.570;10.428;2023-07-13T11:07:19;1.83;;;0.70;;
60032;SDS011;45905;50.570;10.428;2023-07-13T11:09:59;0.80;;;0.60;;
60032;SDS011;45905;50.570;10.428;2023-07-13T11:12:53;1.33;;;0.73;;
60032;SDS011;45905;50.570;10.428;2023-07-13T11:15:30;0.80;;;0.50;;
60032;SDS011;45905;50.570;10.428;2023-07-13T11:18:22;0.90;;;0.60;;
60032;SDS011;45905;50.570;10.428;2023-07-13T11:20:51;1.10;;;0.53;;
60032;SDS011;45905;50.570;10.428;2023-07-13T11:24:14;2.50;;;0.70;;
60032;SDS011;45905;50.570;10.428;2023-07-13T11:31:54;1.50;;;0.70;;
60032;SDS011;45905;50.570;10.428;2023-07-13T11:34:33;1.87;;;0.73;;
60032;SDS011;45905;50.570;10.428;2023-07-13T11:37:10;1.53;;;0.60;;
60032;SDS011;45905;50.570;10.428;2023-07-13T11:39:42;1.57;;;0.70;;
60032;SDS011;45905;50.570;10.428;2023-07-13T11:42:14;0.83;;;0.63;;
60032;SDS011;45905;50.570;10.428;2023-07-13T11:44:46;1.43;;;0.77;;
60032;SDS011;45905;50.570;10.428;2023-07-13T11:47:34;4.00;;;0.63;;
60032;SDS011;45905;50.570;10.428;2023-07-13T11:50:16;1.03;;;0.50;;
60032;SDS011;45905;50.570;10.428;2023-07-13T11:52:50;0.83;;;0.50;;
60032;SDS011;45905;50.570;10.428;2023-07-13T11:55:21;2.63;;;0.57;;
60032;SDS011;45905;50.570;10.428;2023-07-13T11:57:51;1.87;;;0.70;;
60032;SDS011;45905;50.570;10.428;2023-07-13T12:00:27;1.00;;;0.53;;
60032;SDS011;45905;50.570;10.428;2023-07-13T12:03:00;1.77;;;0.70;;
60032;SDS011;45905;50.570;10.428;2023-07-13T12:05:31;0.90;;;0.50;;
60032;SDS011;45905;50.570;10.428;2023-07-13T12:07:59;1.90;;;0.70;;
60032;SDS011;45905;50.570;10.428;2023-07-13T12:10:55;0.80;;;0.40;;
60032;SDS011;45905;50.570;10.428;2023-07-13T12:13:35;0.93;;;0.70;;
60032;SDS011;45905;50.570;10.428;2023-07-13T12:16:11;2.40;;;0.50;;
60032;SDS011;45905;50.570;10.428;2023-07-13T12:18:43;1.40;;;0.60;;
60032;SDS011;45905;50.570;10.428;2023-07-13T12:21:13;1.27;;;0.70;;
60032;SDS011;45905;50.570;10.428;2023-07-13T12:23:47;0.80;;;0.50;;
60032;SDS011;45905;50.570;10.428;2023-07-13T12:26:16;0.90;;;0.40;;
60032;SDS011;45905;50.570;10.428;2023-07-13T12:28:48;0.90;;;0.50;;
60032;SDS011;45905;50.570;10.428;2023-07-13T12:34:10;1.20;;;0.60;;
60032;SDS011;45905;50.570;10.428;2023-07-13T12:42:37;0.93;;;0.63;;
60032;SDS011;45905;50.570;10.428;2023-07-13T12:45:01;1.30;;;0.47;;
60032;SDS011;45905;50.570;10.428;2023-07-13T12:47:47;1.10;;;0.80;;
60032;SDS011;45905;50.570;10.428;2023-07-13T12:50:37;0.90;;;0.40;;
60032;SDS011;45905;50.570;10.428;2023-07-13T12:53:13;0.70;;;0.40;;
60032;SDS011;45905;50.570;10.428;2023-07-13T12:55:52;0.90;;;0.50;;
60032;SDS011;45905;50.570;10.428;2023-07-13T12:58:27;0.90;;;0.77;;
60032;SDS011;45905;50.570;10.428;2023-07-13T13:00:59;1.57;;;0.60;;
60032;SDS011;45905;50.570;10.428;2023-07-13T13:03:30;1.00;;;0.50;;
60032;SDS011;45905;50.570;10.428;2023-07-13T13:06:04;0.80;;;0.70;;
60032;SDS011;45905;50.570;10.428;2023-07-13T13:08:57;1.37;;;0.50;;
60032;SDS011;45905;50.570;10.428;2023-07-13T13:11:27;1.00;;;0.50;;
60032;SDS011;45905;50.570;10.428;2023-07-13T13:13:57;8.07;;;0.97;;
60032;SDS011;45905;50.570;10.428;2023-07-13T13:16:34;0.87;;;0.60;;
60032;SDS011;45905;50.570;10.428;2023-07-13T13:19:18;0.80;;;0.40;;
60032;SDS011;45905;50.570;10.428;2023-07-13T13:21:55;1.17;;;0.50;;
60032;SDS011;45905;50.570;10.428;2023-07-13T13:24:24;0.80;;;0.50;;
60032;SDS011;45905;50.570;10.428;2023-07-13T13:26:54;1.83;;;0.60;;
60032;SDS011;45905;50.570;10.428;2023-07-13T13:29:26;9.03;;;0.90;;
60032;SDS011;45905;50.570;10.428;2023-07-13T13:31:54;0.90;;;0.60;;
60032;SDS011;45905;50.570;10.428;2023-07-13T13:34:22;0.80;;;0.47;;
60032;SDS011;45905;50.570;10.428;2023-07-13T13:36:52;0.93;;;0.50;;
60032;SDS011;45905;50.570;10.428;2023-07-13T13:39:28;2.47;;;0.53;;
60032;SDS011;45905;50.570;10.428;2023-07-13T13:42:01;0.80;;;0.40;;
60032;SDS011;45905;50.570;10.428;2023-07-13T13:44:29;0.80;;;0.43;;
60032;SDS011;45905;50.570;10.428;2023-07-13T13:46:56;0.80;;;0.50;;
60032;SDS011;45905;50.570;10.428;2023-07-13T13:49:25;1.63;;;0.67;;
60032;SDS011;45905;50.570;10.428;2023-07-13T13:51:54;1.00;;;0.90;;
60032;SDS011;45905;50.570;10.428;2023-07-13T13:54:23;1.10;;;0.60;;
60032;SDS011;45905;50.570;10.428;2023-07-13T13:56:52;4.33;;;0.63;;
60032;SDS011;45905;50.570;10.428;2023-07-13T13:59:20;1.10;;;0.50;;
60032;SDS011;45905;50.570;10.428;2023-07-13T14:01:47;1.33;;;0.40;;
60032;SDS011;45905;50.570;10.428;2023-07-13T14:04:18;0.93;;;0.60;;
60032;SDS011;45905;50.570;10.428;2023-07-13T14:06:48;0.90;;;0.47;;
60032;SDS011;45905;50.570;10.428;2023-07-13T14:09:16;1.33;;;0.50;;
60032;SDS011;45905;50.570;10.428;2023-07-13T14:11:46;3.10;;;0.53;;
60032;SDS011;45905;50.570;10.428;2023-07-13T14:14:18;0.90;;;0.60;;
60032;SDS011;45905;50.570;10.428;2023-07-13T14:16:53;0.80;;;0.40;;
60032;SDS011;45905;50.570;10.428;2023-07-13T14:19:23;1.03;;;0.57;;
60032;SDS011;45905;50.570;10.428;2023-07-13T14:21:50;3.03;;;1.03;;
60032;SDS011;45905;50.570;10.428;2023-07-13T14:24:20;1.17;;;0.67;;
60032;SDS011;45905;50.570;10.428;2023-07-13T14:26:48;2.17;;;0.70;;
60032;SDS011;45905;50.570;10.428;2023-07-13T14:29:16;0.90;;;0.53;;
60032;SDS011;45905;50.570;10.428;2023-07-13T14:31:50;1.10;;;0.80;;
60032;SDS011;45905;50.570;10.428;2023-07-13T14:34:17;1.63;;;0.57;;
60032;SDS011;45905;50.570;10.428;2023-07-13T14:36:46;0.80;;;0.40;;
60032;SDS011;45905;50.570;10.428;2023-07-13T14:39:23;1.33;;;0.60;;
60032;SDS011;45905;50.570;10.428;2023-07-13T14:41:52;1.60;;;0.63;;
60032;SDS011;45905;50.570;10.428;2023-07-13T14:44:23;0.80;;;0.50;;
60032;SDS011;45905;50.570;10.428;2023-07-13T14:46:56;1.90;;;1.20;;
60032;SDS011;45905;50.570;10.428;2023-07-13T14:51:56;1.60;;;0.70;;
60032;SDS011;45905;50.570;10.428;2023-07-13T14:54:32;3.30;;;0.73;;
60032;SDS011;45905;50.570;10.428;2023-07-13T14:56:59;1.10;;;0.70;;
60032;SDS011;45905;50.570;10.428;2023-07-13T14:59:27;1.10;;;0.70;;
60032;SDS011;45905;50.570;10.428;2023-07-13T15:01:55;0.90;;;0.73;;
60032;SDS011;45905;50.570;10.428;2023-07-13T15:04:22;3.03;;;0.70;;
60032;SDS011;45905;50.570;10.428;2023-07-13T15:07:07;1.00;;;0.60;;
60032;SDS011;45905;50.570;10.428;2023-07-13T15:09:37;2.10;;;1.20;;
60032;SDS011;45905;50.570;10.428;2023-07-13T15:12:04;3.53;;;0.77;;
60032;SDS011;45905;50.570;10.428;2023-07-13T15:14:32;2.30;;;0.80;;
60032;SDS011;45905;50.570;10.428;2023-07-13T15:16:59;1.40;;;0.93;;
60032;SDS011;45905;50.570;10.428;2023-07-13T15:19:27;2.43;;;0.80;;
60032;SDS011;45905;50.570;10.428;2023-07-13T15:21:55;1.30;;;0.63;;
60032;SDS011;45905;50.570;10.428;2023-07-13T15:24:27;1.30;;;0.63;;
60032;SDS011;45905;50.570;10.428;2023-07-13T15:26:55;2.53;;;0.70;;
60032;SDS011;45905;50.570;10.428;2023-07-13T15:29:22;4.17;;;0.97;;